LFRZ/SNR METAR and TAF weather

Enter ICAO airport designator
Station Type Date Time Source
LFRZ METAR 2019/08/21 22:30 UTC NOAA

LFRZ 212230Z AUTO 35005KT CAVOK 16/12 Q1025 NOSIG


Station Type Date Time Source
LFRZ Decoded METAR 2019/08/21 22:30 UTC NOAA

Station name not available
Aug 21, 2019 - 06:30 PM EDT / 2019.08.21 2230 UTC
Wind: from the N (350 degrees) at 6 MPH (5 KT):0
Visibility: greater than 7 mile(s):0
Temperature: 60 F (16 C)
Dew Point: 53 F (12 C)
Relative Humidity: 77%
Pressure (altimeter): 30.27 in. Hg (1025 hPa)
ob: LFRZ 212230Z AUTO 35005KT CAVOK 16/12 Q1025 NOSIG
cycle: 22

Station Type Date Time Source
LFRZ TAF 2019/08/21 18:44 UTC NOAA

TAF LFRZ 211700Z 2118/2218 35006KT CAVOK

Example: see airport list